sensor_id;sensor_type;location;lat;lon;timestamp;P1;durP1;ratioP1;P2;durP2;ratioP2
21507;SDS011;10915;54.352;9.074;2023-07-02T00:02:03;16.70;;;4.67;;
21507;SDS011;10915;54.352;9.074;2023-07-02T00:05:14;11.13;;;4.50;;
21507;SDS011;10915;54.352;9.074;2023-07-02T00:07:49;16.23;;;4.97;;
21507;SDS011;10915;54.352;9.074;2023-07-02T00:10:17;14.93;;;4.90;;
21507;SDS011;10915;54.352;9.074;2023-07-02T00:12:55;13.47;;;4.73;;
21507;SDS011;10915;54.352;9.074;2023-07-02T00:15:30;11.90;;;5.70;;
21507;SDS011;10915;54.352;9.074;2023-07-02T00:18:14;10.40;;;4.50;;
21507;SDS011;10915;54.352;9.074;2023-07-02T00:20:53;12.40;;;4.50;;
21507;SDS011;10915;54.352;9.074;2023-07-02T00:23:22;14.60;;;4.43;;
21507;SDS011;10915;54.352;9.074;2023-07-02T00:28:24;11.17;;;4.73;;
21507;SDS011;10915;54.352;9.074;2023-07-02T00:30:56;15.20;;;4.33;;
21507;SDS011;10915;54.352;9.074;2023-07-02T00:33:22;13.87;;;5.03;;
21507;SDS011;10915;54.352;9.074;2023-07-02T00:35:57;12.80;;;4.57;;
21507;SDS011;10915;54.352;9.074;2023-07-02T00:38:55;10.17;;;3.97;;
21507;SDS011;10915;54.352;9.074;2023-07-02T00:41:27;11.83;;;4.67;;
21507;SDS011;10915;54.352;9.074;2023-07-02T00:43:57;11.87;;;4.57;;
21507;SDS011;10915;54.352;9.074;2023-07-02T00:46:38;10.50;;;3.73;;
21507;SDS011;10915;54.352;9.074;2023-07-02T00:49:04;13.80;;;4.83;;
21507;SDS011;10915;54.352;9.074;2023-07-02T00:51:36;10.93;;;4.00;;
21507;SDS011;10915;54.352;9.074;2023-07-02T00:54:02;12.30;;;4.17;;
21507;SDS011;10915;54.352;9.074;2023-07-02T00:56:28;13.73;;;4.10;;
21507;SDS011;10915;54.352;9.074;2023-07-02T00:59:10;13.43;;;4.00;;
21507;SDS011;10915;54.352;9.074;2023-07-02T01:01:44;12.03;;;4.20;;
21507;SDS011;10915;54.352;9.074;2023-07-02T01:04:18;11.87;;;4.23;;
21507;SDS011;10915;54.352;9.074;2023-07-02T01:06:53;10.73;;;4.23;;
21507;SDS011;10915;54.352;9.074;2023-07-02T01:09:27;11.00;;;3.90;;
21507;SDS011;10915;54.352;9.074;2023-07-02T01:11:57;10.93;;;4.27;;
21507;SDS011;10915;54.352;9.074;2023-07-02T01:14:32;10.67;;;4.03;;
21507;SDS011;10915;54.352;9.074;2023-07-02T01:17:21;14.47;;;4.47;;
21507;SDS011;10915;54.352;9.074;2023-07-02T01:22:37;11.07;;;4.40;;
21507;SDS011;10915;54.352;9.074;2023-07-02T01:25:03;12.30;;;4.70;;
21507;SDS011;10915;54.352;9.074;2023-07-02T01:27:30;13.47;;;5.20;;
21507;SDS011;10915;54.352;9.074;2023-07-02T01:30:00;13.57;;;4.70;;
21507;SDS011;10915;54.352;9.074;2023-07-02T01:32:26;22.07;;;5.93;;
21507;SDS011;10915;54.352;9.074;2023-07-02T01:34:55;16.23;;;5.83;;
21507;SDS011;10915;54.352;9.074;2023-07-02T01:37:31;17.10;;;6.47;;
21507;SDS011;10915;54.352;9.074;2023-07-02T01:40:02;18.07;;;5.73;;
21507;SDS011;10915;54.352;9.074;2023-07-02T01:42:32;17.03;;;6.37;;
21507;SDS011;10915;54.352;9.074;2023-07-02T01:44:58;18.50;;;7.03;;
21507;SDS011;10915;54.352;9.074;2023-07-02T01:47:24;14.83;;;6.93;;
21507;SDS011;10915;54.352;9.074;2023-07-02T01:49:55;20.43;;;7.23;;
21507;SDS011;10915;54.352;9.074;2023-07-02T01:52:22;24.50;;;8.07;;
21507;SDS011;10915;54.352;9.074;2023-07-02T01:54:59;16.80;;;6.47;;
21507;SDS011;10915;54.352;9.074;2023-07-02T01:57:26;18.17;;;6.83;;
21507;SDS011;10915;54.352;9.074;2023-07-02T01:59:51;18.43;;;6.67;;
21507;SDS011;10915;54.352;9.074;2023-07-02T02:02:18;20.80;;;6.97;;
21507;SDS011;10915;54.352;9.074;2023-07-02T02:04:47;21.20;;;7.00;;
21507;SDS011;10915;54.352;9.074;2023-07-02T02:07:13;19.17;;;7.60;;
21507;SDS011;10915;54.352;9.074;2023-07-02T02:09:42;17.63;;;7.50;;
21507;SDS011;10915;54.352;9.074;2023-07-02T02:12:07;19.50;;;7.30;;
21507;SDS011;10915;54.352;9.074;2023-07-02T02:14:34;17.13;;;7.20;;
21507;SDS011;10915;54.352;9.074;2023-07-02T02:16:59;20.73;;;7.10;;
21507;SDS011;10915;54.352;9.074;2023-07-02T02:19:36;20.07;;;7.40;;
21507;SDS011;10915;54.352;9.074;2023-07-02T02:22:05;17.40;;;7.10;;
21507;SDS011;10915;54.352;9.074;2023-07-02T02:24:31;18.30;;;7.33;;
21507;SDS011;10915;54.352;9.074;2023-07-02T02:27:00;14.40;;;6.00;;
21507;SDS011;10915;54.352;9.074;2023-07-02T02:32:22;15.57;;;6.70;;
21507;SDS011;10915;54.352;9.074;2023-07-02T02:34:55;17.23;;;6.37;;
21507;SDS011;10915;54.352;9.074;2023-07-02T02:37:21;15.80;;;6.47;;
21507;SDS011;10915;54.352;9.074;2023-07-02T02:39:51;19.43;;;7.80;;
21507;SDS011;10915;54.352;9.074;2023-07-02T02:42:24;18.93;;;6.40;;
21507;SDS011;10915;54.352;9.074;2023-07-02T02:44:53;14.93;;;5.97;;
21507;SDS011;10915;54.352;9.074;2023-07-02T02:47:22;16.63;;;6.47;;
21507;SDS011;10915;54.352;9.074;2023-07-02T02:49:50;12.27;;;5.50;;
21507;SDS011;10915;54.352;9.074;2023-07-02T02:52:31;18.97;;;6.57;;
21507;SDS011;10915;54.352;9.074;2023-07-02T02:55:00;19.07;;;6.83;;
21507;SDS011;10915;54.352;9.074;2023-07-02T02:57:30;19.30;;;6.83;;
21507;SDS011;10915;54.352;9.074;2023-07-02T03:00:06;20.20;;;6.53;;
21507;SDS011;10915;54.352;9.074;2023-07-02T03:02:42;23.47;;;7.23;;
21507;SDS011;10915;54.352;9.074;2023-07-02T03:05:14;18.20;;;7.20;;
21507;SDS011;10915;54.352;9.074;2023-07-02T03:07:41;16.63;;;6.47;;
21507;SDS011;10915;54.352;9.074;2023-07-02T03:10:09;19.33;;;7.20;;
21507;SDS011;10915;54.352;9.074;2023-07-02T03:12:37;18.70;;;6.40;;
21507;SDS011;10915;54.352;9.074;2023-07-02T03:15:06;16.53;;;5.97;;
21507;SDS011;10915;54.352;9.074;2023-07-02T03:17:42;16.57;;;5.73;;
21507;SDS011;10915;54.352;9.074;2023-07-02T03:20:11;18.00;;;6.90;;
21507;SDS011;10915;54.352;9.074;2023-07-02T03:22:41;15.17;;;5.70;;
21507;SDS011;10915;54.352;9.074;2023-07-02T03:25:07;21.83;;;7.13;;
21507;SDS011;10915;54.352;9.074;2023-07-02T03:27:52;15.93;;;6.37;;
21507;SDS011;10915;54.352;9.074;2023-07-02T03:30:21;16.20;;;6.13;;
21507;SDS011;10915;54.352;9.074;2023-07-02T03:32:51;17.80;;;5.87;;
21507;SDS011;10915;54.352;9.074;2023-07-02T03:35:25;19.20;;;5.90;;
21507;SDS011;10915;54.352;9.074;2023-07-02T03:37:54;15.50;;;6.50;;
21507;SDS011;10915;54.352;9.074;2023-07-02T03:40:23;14.33;;;6.20;;
21507;SDS011;10915;54.352;9.074;2023-07-02T03:43:19;16.87;;;6.70;;
21507;SDS011;10915;54.352;9.074;2023-07-02T03:45:57;17.70;;;6.23;;
21507;SDS011;10915;54.352;9.074;2023-07-02T03:48:45;13.83;;;6.17;;
21507;SDS011;10915;54.352;9.074;2023-07-02T03:51:18;15.23;;;6.07;;
21507;SDS011;10915;54.352;9.074;2023-07-02T03:54:00;14.50;;;6.33;;
21507;SDS011;10915;54.352;9.074;2023-07-02T03:57:05;12.03;;;5.73;;
21507;SDS011;10915;54.352;9.074;2023-07-02T04:00:02;11.70;;;5.10;;
21507;SDS011;10915;54.352;9.074;2023-07-02T04:02:30;12.37;;;5.30;;
21507;SDS011;10915;54.352;9.074;2023-07-02T04:05:01;13.60;;;5.47;;
21507;SDS011;10915;54.352;9.074;2023-07-02T04:07:30;13.47;;;4.93;;
21507;SDS011;10915;54.352;9.074;2023-07-02T04:09:56;14.20;;;5.60;;
21507;SDS011;10915;54.352;9.074;2023-07-02T04:12:21;11.43;;;6.07;;
21507;SDS011;10915;54.352;9.074;2023-07-02T04:14:47;14.50;;;6.17;;
21507;SDS011;10915;54.352;9.074;2023-07-02T04:17:13;12.00;;;5.90;;
21507;SDS011;10915;54.352;9.074;2023-07-02T04:19:53;12.27;;;5.73;;
21507;SDS011;10915;54.352;9.074;2023-07-02T04:22:32;15.73;;;6.90;;
21507;SDS011;10915;54.352;9.074;2023-07-02T04:24:57;12.40;;;6.13;;
21507;SDS011;10915;54.352;9.074;2023-07-02T04:27:24;22.40;;;7.17;;
21507;SDS011;10915;54.352;9.074;2023-07-02T04:29:53;16.80;;;7.17;;
21507;SDS011;10915;54.352;9.074;2023-07-02T04:32:23;13.30;;;6.80;;
21507;SDS011;10915;54.352;9.074;2023-07-02T04:34:49;13.77;;;6.40;;
21507;SDS011;10915;54.352;9.074;2023-07-02T04:37:20;14.83;;;6.90;;
21507;SDS011;10915;54.352;9.074;2023-07-02T04:39:47;14.03;;;6.70;;
21507;SDS011;10915;54.352;9.074;2023-07-02T04:42:21;12.93;;;6.70;;
21507;SDS011;10915;54.352;9.074;2023-07-02T04:44:50;14.63;;;6.93;;
21507;SDS011;10915;54.352;9.074;2023-07-02T04:47:16;14.57;;;6.93;;
21507;SDS011;10915;54.352;9.074;2023-07-02T04:49:45;13.03;;;6.77;;
21507;SDS011;10915;54.352;9.074;2023-07-02T04:52:20;17.80;;;7.17;;
21507;SDS011;10915;54.352;9.074;2023-07-02T04:54:49;16.60;;;7.37;;
21507;SDS011;10915;54.352;9.074;2023-07-02T04:57:24;14.63;;;6.90;;
21507;SDS011;10915;54.352;9.074;2023-07-02T04:59:56;13.67;;;6.97;;
21507;SDS011;10915;54.352;9.074;2023-07-02T05:02:31;18.97;;;8.67;;
21507;SDS011;10915;54.352;9.074;2023-07-02T05:12:09;14.73;;;7.17;;
21507;SDS011;10915;54.352;9.074;2023-07-02T05:14:57;17.50;;;7.67;;
21507;SDS011;10915;54.352;9.074;2023-07-02T05:17:53;21.10;;;7.83;;
21507;SDS011;10915;54.352;9.074;2023-07-02T05:20:39;15.87;;;7.77;;
21507;SDS011;10915;54.352;9.074;2023-07-02T05:23:05;20.83;;;8.23;;
21507;SDS011;10915;54.352;9.074;2023-07-02T05:25:31;15.57;;;7.33;;
21507;SDS011;10915;54.352;9.074;2023-07-02T05:28:27;17.57;;;7.63;;
21507;SDS011;10915;54.352;9.074;2023-07-02T05:30:53;12.87;;;5.83;;
21507;SDS011;10915;54.352;9.074;2023-07-02T05:33:29;12.23;;;4.67;;
21507;SDS011;10915;54.352;9.074;2023-07-02T05:38:35;11.90;;;5.43;;
21507;SDS011;10915;54.352;9.074;2023-07-02T05:44:20;12.90;;;5.70;;
21507;SDS011;10915;54.352;9.074;2023-07-02T05:47:15;11.03;;;5.23;;
21507;SDS011;10915;54.352;9.074;2023-07-02T05:50:18;14.47;;;6.00;;
21507;SDS011;10915;54.352;9.074;2023-07-02T05:53:36;12.07;;;5.50;;
21507;SDS011;10915;54.352;9.074;2023-07-02T05:56:28;14.90;;;5.53;;
21507;SDS011;10915;54.352;9.074;2023-07-02T05:58:54;11.40;;;5.17;;
21507;SDS011;10915;54.352;9.074;2023-07-02T06:01:19;13.27;;;6.00;;
21507;SDS011;10915;54.352;9.074;2023-07-02T06:03:45;16.40;;;6.43;;
21507;SDS011;10915;54.352;9.074;2023-07-02T06:06:11;16.03;;;5.93;;
21507;SDS011;10915;54.352;9.074;2023-07-02T06:08:37;15.97;;;5.70;;
21507;SDS011;10915;54.352;9.074;2023-07-02T06:11:02;15.23;;;5.67;;
21507;SDS011;10915;54.352;9.074;2023-07-02T06:13:28;13.20;;;5.53;;
21507;SDS011;10915;54.352;9.074;2023-07-02T06:15:54;10.33;;;5.17;;
21507;SDS011;10915;54.352;9.074;2023-07-02T06:18:19;13.10;;;5.50;;
21507;SDS011;10915;54.352;9.074;2023-07-02T06:20:45;10.97;;;4.43;;
21507;SDS011;10915;54.352;9.074;2023-07-02T06:23:11;11.97;;;4.97;;
21507;SDS011;10915;54.352;9.074;2023-07-02T06:25:37;10.70;;;4.53;;
21507;SDS011;10915;54.352;9.074;2023-07-02T06:28:03;10.53;;;5.10;;
21507;SDS011;10915;54.352;9.074;2023-07-02T06:30:28;14.47;;;5.60;;
21507;SDS011;10915;54.352;9.074;2023-07-02T06:32:54;9.90;;;5.30;;
21507;SDS011;10915;54.352;9.074;2023-07-02T06:35:20;14.17;;;4.60;;
21507;SDS011;10915;54.352;9.074;2023-07-02T06:37:46;12.90;;;5.23;;
21507;SDS011;10915;54.352;9.074;2023-07-02T06:40:12;13.67;;;5.70;;
21507;SDS011;10915;54.352;9.074;2023-07-02T06:42:38;10.50;;;5.40;;
21507;SDS011;10915;54.352;9.074;2023-07-02T06:45:04;15.03;;;6.03;;
21507;SDS011;10915;54.352;9.074;2023-07-02T06:47:30;11.03;;;5.20;;
21507;SDS011;10915;54.352;9.074;2023-07-02T06:49:55;15.43;;;5.70;;
21507;SDS011;10915;54.352;9.074;2023-07-02T06:52:21;10.67;;;5.23;;
21507;SDS011;10915;54.352;9.074;2023-07-02T06:54:47;13.30;;;5.20;;
21507;SDS011;10915;54.352;9.074;2023-07-02T06:57:13;9.03;;;4.80;;
21507;SDS011;10915;54.352;9.074;2023-07-02T06:59:38;14.33;;;5.00;;
21507;SDS011;10915;54.352;9.074;2023-07-02T07:02:04;13.50;;;5.83;;
21507;SDS011;10915;54.352;9.074;2023-07-02T07:04:30;10.57;;;4.80;;
21507;SDS011;10915;54.352;9.074;2023-07-02T07:06:55;13.47;;;5.30;;
21507;SDS011;10915;54.352;9.074;2023-07-02T07:09:21;12.53;;;4.80;;
21507;SDS011;10915;54.352;9.074;2023-07-02T07:11:47;13.97;;;4.30;;
21507;SDS011;10915;54.352;9.074;2023-07-02T07:14:13;12.00;;;4.53;;
21507;SDS011;10915;54.352;9.074;2023-07-02T07:16:38;13.20;;;4.10;;
21507;SDS011;10915;54.352;9.074;2023-07-02T07:19:04;9.53;;;3.67;;
21507;SDS011;10915;54.352;9.074;2023-07-02T07:21:31;10.47;;;3.27;;
21507;SDS011;10915;54.352;9.074;2023-07-02T07:23:56;4.57;;;2.30;;
21507;SDS011;10915;54.352;9.074;2023-07-02T07:26:22;6.13;;;2.23;;
21507;SDS011;10915;54.352;9.074;2023-07-02T07:28:48;9.50;;;2.80;;
21507;SDS011;10915;54.352;9.074;2023-07-02T07:31:14;8.73;;;2.90;;
21507;SDS011;10915;54.352;9.074;2023-07-02T07:33:40;9.53;;;3.63;;
21507;SDS011;10915;54.352;9.074;2023-07-02T07:36:06;8.67;;;3.73;;
21507;SDS011;10915;54.352;9.074;2023-07-02T07:38:31;11.80;;;3.40;;
21507;SDS011;10915;54.352;9.074;2023-07-02T07:40:57;12.93;;;3.70;;
21507;SDS011;10915;54.352;9.074;2023-07-02T07:43:23;11.67;;;3.60;;
21507;SDS011;10915;54.352;9.074;2023-07-02T07:45:48;11.23;;;3.97;;
21507;SDS011;10915;54.352;9.074;2023-07-02T07:48:14;9.33;;;3.57;;
21507;SDS011;10915;54.352;9.074;2023-07-02T07:50:40;10.80;;;3.67;;
21507;SDS011;10915;54.352;9.074;2023-07-02T07:53:06;9.40;;;4.10;;
21507;SDS011;10915;54.352;9.074;2023-07-02T07:55:31;10.40;;;3.93;;
21507;SDS011;10915;54.352;9.074;2023-07-02T07:57:57;9.07;;;3.83;;
21507;SDS011;10915;54.352;9.074;2023-07-02T08:00:22;11.20;;;4.03;;
21507;SDS011;10915;54.352;9.074;2023-07-02T08:02:49;11.93;;;4.83;;
21507;SDS011;10915;54.352;9.074;2023-07-02T08:05:17;15.10;;;4.93;;
21507;SDS011;10915;54.352;9.074;2023-07-02T08:07:42;14.70;;;5.40;;
21507;SDS011;10915;54.352;9.074;2023-07-02T08:10:08;10.83;;;3.50;;
21507;SDS011;10915;54.352;9.074;2023-07-02T08:12:34;10.67;;;3.60;;
21507;SDS011;10915;54.352;9.074;2023-07-02T08:15:00;12.53;;;4.03;;
21507;SDS011;10915;54.352;9.074;2023-07-02T08:17:25;11.23;;;4.33;;
21507;SDS011;10915;54.352;9.074;2023-07-02T08:19:51;13.83;;;4.27;;
21507;SDS011;10915;54.352;9.074;2023-07-02T08:22:17;11.77;;;4.03;;
21507;SDS011;10915;54.352;9.074;2023-07-02T08:24:42;11.37;;;5.13;;
21507;SDS011;10915;54.352;9.074;2023-07-02T08:27:08;10.77;;;3.63;;
21507;SDS011;10915;54.352;9.074;2023-07-02T08:29:35;17.13;;;4.70;;
21507;SDS011;10915;54.352;9.074;2023-07-02T08:32:00;12.57;;;3.90;;
21507;SDS011;10915;54.352;9.074;2023-07-02T08:34:26;12.40;;;4.93;;
21507;SDS011;10915;54.352;9.074;2023-07-02T08:36:52;13.20;;;4.77;;
21507;SDS011;10915;54.352;9.074;2023-07-02T08:39:17;17.83;;;5.20;;
21507;SDS011;10915;54.352;9.074;2023-07-02T08:41:43;13.97;;;4.20;;
21507;SDS011;10915;54.352;9.074;2023-07-02T08:44:19;10.43;;;3.83;;
21507;SDS011;10915;54.352;9.074;2023-07-02T08:46:46;13.40;;;4.10;;
21507;SDS011;10915;54.352;9.074;2023-07-02T08:49:18;11.73;;;3.57;;
21507;SDS011;10915;54.352;9.074;2023-07-02T08:51:44;11.33;;;5.43;;
21507;SDS011;10915;54.352;9.074;2023-07-02T08:54:10;15.83;;;8.00;;
21507;SDS011;10915;54.352;9.074;2023-07-02T08:56:36;11.17;;;4.10;;
21507;SDS011;10915;54.352;9.074;2023-07-02T08:59:05;14.57;;;4.70;;
21507;SDS011;10915;54.352;9.074;2023-07-02T09:01:32;13.27;;;4.03;;
21507;SDS011;10915;54.352;9.074;2023-07-02T09:03:58;17.43;;;4.13;;
21507;SDS011;10915;54.352;9.074;2023-07-02T09:06:27;12.67;;;3.93;;
21507;SDS011;10915;54.352;9.074;2023-07-02T09:08:53;9.97;;;3.70;;
21507;SDS011;10915;54.352;9.074;2023-07-02T09:11:27;12.10;;;3.53;;
21507;SDS011;10915;54.352;9.074;2023-07-02T09:13:53;13.60;;;3.50;;
21507;SDS011;10915;54.352;9.074;2023-07-02T09:16:27;15.80;;;4.27;;
21507;SDS011;10915;54.352;9.074;2023-07-02T09:19:04;12.83;;;3.53;;
21507;SDS011;10915;54.352;9.074;2023-07-02T09:21:40;11.90;;;3.37;;
21507;SDS011;10915;54.352;9.074;2023-07-02T09:24:13;14.07;;;3.37;;
21507;SDS011;10915;54.352;9.074;2023-07-02T09:26:41;12.30;;;3.73;;
21507;SDS011;10915;54.352;9.074;2023-07-02T09:29:11;12.10;;;3.47;;
21507;SDS011;10915;54.352;9.074;2023-07-02T09:31:46;11.93;;;3.70;;
21507;SDS011;10915;54.352;9.074;2023-07-02T09:34:12;13.33;;;3.70;;
21507;SDS011;10915;54.352;9.074;2023-07-02T09:36:39;12.67;;;3.77;;
21507;SDS011;10915;54.352;9.074;2023-07-02T09:39:29;11.70;;;4.27;;
21507;SDS011;10915;54.352;9.074;2023-07-02T09:41:55;12.03;;;3.70;;
21507;SDS011;10915;54.352;9.074;2023-07-02T09:44:25;19.20;;;3.77;;
21507;SDS011;10915;54.352;9.074;2023-07-02T09:47:02;14.93;;;4.13;;
21507;SDS011;10915;54.352;9.074;2023-07-02T09:49:32;18.83;;;3.70;;
21507;SDS011;10915;54.352;9.074;2023-07-02T09:52:07;12.97;;;3.30;;
21507;SDS011;10915;54.352;9.074;2023-07-02T09:54:37;14.90;;;4.13;;
21507;SDS011;10915;54.352;9.074;2023-07-02T09:57:03;11.47;;;3.20;;
21507;SDS011;10915;54.352;9.074;2023-07-02T09:59:31;12.80;;;3.50;;
21507;SDS011;10915;54.352;9.074;2023-07-02T10:01:56;14.67;;;3.87;;
21507;SDS011;10915;54.352;9.074;2023-07-02T10:04:23;15.07;;;3.40;;
21507;SDS011;10915;54.352;9.074;2023-07-02T10:06:52;17.90;;;3.43;;
21507;SDS011;10915;54.352;9.074;2023-07-02T10:09:21;17.80;;;3.57;;
21507;SDS011;10915;54.352;9.074;2023-07-02T10:14:45;13.40;;;3.60;;
21507;SDS011;10915;54.352;9.074;2023-07-02T10:17:22;12.30;;;3.30;;
21507;SDS011;10915;54.352;9.074;2023-07-02T10:19:50;10.63;;;3.57;;
21507;SDS011;10915;54.352;9.074;2023-07-02T10:22:19;10.80;;;2.93;;
21507;SDS011;10915;54.352;9.074;2023-07-02T10:24:52;15.10;;;4.43;;
21507;SDS011;10915;54.352;9.074;2023-07-02T10:27:18;18.70;;;4.43;;
21507;SDS011;10915;54.352;9.074;2023-07-02T10:29:50;15.23;;;4.20;;
21507;SDS011;10915;54.352;9.074;2023-07-02T10:32:25;12.70;;;4.20;;
21507;SDS011;10915;54.352;9.074;2023-07-02T10:34:53;15.70;;;4.03;;
21507;SDS011;10915;54.352;9.074;2023-07-02T10:37:18;11.73;;;3.43;;
21507;SDS011;10915;54.352;9.074;2023-07-02T10:39:44;13.07;;;3.77;;
21507;SDS011;10915;54.352;9.074;2023-07-02T10:42:10;17.77;;;4.20;;
21507;SDS011;10915;54.352;9.074;2023-07-02T10:44:56;14.73;;;4.20;;
21507;SDS011;10915;54.352;9.074;2023-07-02T10:47:21;16.10;;;4.23;;
21507;SDS011;10915;54.352;9.074;2023-07-02T10:49:47;16.10;;;4.17;;
21507;SDS011;10915;54.352;9.074;2023-07-02T10:52:13;9.73;;;3.40;;
21507;SDS011;10915;54.352;9.074;2023-07-02T10:54:42;11.77;;;3.57;;
21507;SDS011;10915;54.352;9.074;2023-07-02T10:57:08;10.77;;;3.33;;
21507;SDS011;10915;54.352;9.074;2023-07-02T10:59:36;10.37;;;2.87;;
21507;SDS011;10915;54.352;9.074;2023-07-02T11:02:02;11.13;;;3.50;;
21507;SDS011;10915;54.352;9.074;2023-07-02T11:04:31;11.97;;;3.17;;
21507;SDS011;10915;54.352;9.074;2023-07-02T11:06:58;11.33;;;3.27;;
21507;SDS011;10915;54.352;9.074;2023-07-02T11:09:25;13.67;;;4.00;;
21507;SDS011;10915;54.352;9.074;2023-07-02T11:11:57;12.33;;;3.50;;
21507;SDS011;10915;54.352;9.074;2023-07-02T11:14:33;16.43;;;4.17;;
21507;SDS011;10915;54.352;9.074;2023-07-02T11:17:02;15.37;;;3.70;;
21507;SDS011;10915;54.352;9.074;2023-07-02T11:19:30;8.67;;;2.77;;
21507;SDS011;10915;54.352;9.074;2023-07-02T11:21:59;19.03;;;4.23;;
21507;SDS011;10915;54.352;9.074;2023-07-02T11:24:35;12.80;;;3.00;;
21507;SDS011;10915;54.352;9.074;2023-07-02T11:27:04;11.30;;;3.33;;
21507;SDS011;10915;54.352;9.074;2023-07-02T11:29:31;12.03;;;3.30;;
21507;SDS011;10915;54.352;9.074;2023-07-02T11:32:10;16.80;;;3.47;;
21507;SDS011;10915;54.352;9.074;2023-07-02T11:34:37;11.90;;;3.67;;
21507;SDS011;10915;54.352;9.074;2023-07-02T11:37:04;14.17;;;3.13;;
21507;SDS011;10915;54.352;9.074;2023-07-02T11:39:30;12.77;;;2.87;;
21507;SDS011;10915;54.352;9.074;2023-07-02T11:41:56;11.57;;;3.00;;
21507;SDS011;10915;54.352;9.074;2023-07-02T11:44:22;13.73;;;3.57;;
21507;SDS011;10915;54.352;9.074;2023-07-02T11:46:48;10.70;;;3.40;;
21507;SDS011;10915;54.352;9.074;2023-07-02T11:49:14;11.90;;;2.50;;
21507;SDS011;10915;54.352;9.074;2023-07-02T11:51:40;13.27;;;2.63;;
21507;SDS011;10915;54.352;9.074;2023-07-02T11:54:07;11.30;;;3.07;;
21507;SDS011;10915;54.352;9.074;2023-07-02T11:56:33;11.20;;;2.60;;
21507;SDS011;10915;54.352;9.074;2023-07-02T11:58:58;13.03;;;2.97;;
21507;SDS011;10915;54.352;9.074;2023-07-02T12:01:24;14.07;;;3.03;;
21507;SDS011;10915;54.352;9.074;2023-07-02T12:06:27;14.90;;;2.73;;
21507;SDS011;10915;54.352;9.074;2023-07-02T12:08:59;10.50;;;3.07;;
21507;SDS011;10915;54.352;9.074;2023-07-02T12:11:28;13.73;;;3.57;;
21507;SDS011;10915;54.352;9.074;2023-07-02T12:14:04;15.80;;;3.77;;
21507;SDS011;10915;54.352;9.074;2023-07-02T12:16:35;10.53;;;2.90;;
21507;SDS011;10915;54.352;9.074;2023-07-02T12:19:06;12.97;;;3.57;;
21507;SDS011;10915;54.352;9.074;2023-07-02T12:21:32;12.67;;;3.30;;
21507;SDS011;10915;54.352;9.074;2023-07-02T12:23:57;12.03;;;2.70;;
21507;SDS011;10915;54.352;9.074;2023-07-02T12:26:23;12.37;;;3.20;;
21507;SDS011;10915;54.352;9.074;2023-07-02T12:28:48;14.67;;;3.00;;
21507;SDS011;10915;54.352;9.074;2023-07-02T12:31:18;12.53;;;3.23;;
21507;SDS011;10915;54.352;9.074;2023-07-02T12:33:43;15.37;;;4.03;;
21507;SDS011;10915;54.352;9.074;2023-07-02T12:36:09;13.73;;;3.60;;
21507;SDS011;10915;54.352;9.074;2023-07-02T12:38:39;12.10;;;3.13;;
21507;SDS011;10915;54.352;9.074;2023-07-02T12:41:04;14.67;;;3.77;;
21507;SDS011;10915;54.352;9.074;2023-07-02T12:43:39;10.87;;;3.40;;
21507;SDS011;10915;54.352;9.074;2023-07-02T12:46:16;8.43;;;3.00;;
21507;SDS011;10915;54.352;9.074;2023-07-02T12:48:56;11.30;;;3.70;;
21507;SDS011;10915;54.352;9.074;2023-07-02T12:51:34;12.97;;;3.07;;
21507;SDS011;10915;54.352;9.074;2023-07-02T12:54:05;10.60;;;3.40;;
21507;SDS011;10915;54.352;9.074;2023-07-02T12:57:06;13.13;;;3.63;;
21507;SDS011;10915;54.352;9.074;2023-07-02T13:00:10;14.60;;;3.30;;
21507;SDS011;10915;54.352;9.074;2023-07-02T13:02:45;12.47;;;3.17;;
21507;SDS011;10915;54.352;9.074;2023-07-02T13:05:12;11.33;;;2.67;;
21507;SDS011;10915;54.352;9.074;2023-07-02T13:07:41;10.87;;;2.83;;
21507;SDS011;10915;54.352;9.074;2023-07-02T13:11:02;12.77;;;3.00;;
21507;SDS011;10915;54.352;9.074;2023-07-02T13:13:40;9.30;;;2.97;;
21507;SDS011;10915;54.352;9.074;2023-07-02T13:16:40;12.43;;;3.37;;
21507;SDS011;10915;54.352;9.074;2023-07-02T13:19:33;13.77;;;3.33;;
21507;SDS011;10915;54.352;9.074;2023-07-02T13:22:06;10.60;;;3.87;;
21507;SDS011;10915;54.352;9.074;2023-07-02T13:24:42;10.00;;;2.97;;
21507;SDS011;10915;54.352;9.074;2023-07-02T13:27:41;11.50;;;2.93;;
21507;SDS011;10915;54.352;9.074;2023-07-02T13:30:13;12.30;;;3.93;;
21507;SDS011;10915;54.352;9.074;2023-07-02T13:32:49;11.53;;;3.70;;
21507;SDS011;10915;54.352;9.074;2023-07-02T13:35:14;9.73;;;2.70;;
21507;SDS011;10915;54.352;9.074;2023-07-02T13:37:52;10.63;;;3.20;;
21507;SDS011;10915;54.352;9.074;2023-07-02T13:40:20;12.33;;;3.10;;
21507;SDS011;10915;54.352;9.074;2023-07-02T13:42:55;8.63;;;2.73;;
21507;SDS011;10915;54.352;9.074;2023-07-02T13:45:30;12.47;;;3.03;;
21507;SDS011;10915;54.352;9.074;2023-07-02T13:47:56;13.50;;;2.80;;
21507;SDS011;10915;54.352;9.074;2023-07-02T13:50:22;11.93;;;3.50;;
21507;SDS011;10915;54.352;9.074;2023-07-02T13:52:59;11.63;;;3.73;;
21507;SDS011;10915;54.352;9.074;2023-07-02T13:55:57;11.97;;;3.17;;
21507;SDS011;10915;54.352;9.074;2023-07-02T13:58:23;11.23;;;3.40;;
21507;SDS011;10915;54.352;9.074;2023-07-02T14:00:48;10.00;;;3.07;;
21507;SDS011;10915;54.352;9.074;2023-07-02T14:03:19;9.57;;;3.20;;
21507;SDS011;10915;54.352;9.074;2023-07-02T14:05:48;11.90;;;3.20;;
21507;SDS011;10915;54.352;9.074;2023-07-02T14:08:19;12.97;;;3.47;;
21507;SDS011;10915;54.352;9.074;2023-07-02T14:10:48;12.47;;;3.40;;
21507;SDS011;10915;54.352;9.074;2023-07-02T14:13:13;11.40;;;3.23;;
21507;SDS011;10915;54.352;9.074;2023-07-02T14:15:42;10.67;;;3.13;;
21507;SDS011;10915;54.352;9.074;2023-07-02T14:18:08;10.23;;;3.40;;
21507;SDS011;10915;54.352;9.074;2023-07-02T14:20:43;13.10;;;3.50;;
21507;SDS011;10915;54.352;9.074;2023-07-02T14:23:14;10.70;;;3.00;;
21507;SDS011;10915;54.352;9.074;2023-07-02T14:26:25;14.33;;;3.80;;
21507;SDS011;10915;54.352;9.074;2023-07-02T14:29:34;11.10;;;3.77;;
21507;SDS011;10915;54.352;9.074;2023-07-02T14:32:28;11.57;;;3.27;;
21507;SDS011;10915;54.352;9.074;2023-07-02T14:35:12;12.50;;;3.50;;
21507;SDS011;10915;54.352;9.074;2023-07-02T14:37:55;11.43;;;3.30;;
21507;SDS011;10915;54.352;9.074;2023-07-02T14:40:58;12.07;;;3.70;;
21507;SDS011;10915;54.352;9.074;2023-07-02T14:46:24;9.53;;;3.00;;
21507;SDS011;10915;54.352;9.074;2023-07-02T14:49:02;10.43;;;3.00;;
21507;SDS011;10915;54.352;9.074;2023-07-02T14:51:34;13.17;;;3.10;;
21507;SDS011;10915;54.352;9.074;2023-07-02T14:54:10;9.27;;;3.07;;
21507;SDS011;10915;54.352;9.074;2023-07-02T14:56:53;13.20;;;3.33;;
21507;SDS011;10915;54.352;9.074;2023-07-02T14:59:45;16.80;;;4.03;;
21507;SDS011;10915;54.352;9.074;2023-07-02T15:02:37;9.80;;;3.07;;
21507;SDS011;10915;54.352;9.074;2023-07-02T15:05:06;8.17;;;3.30;;
21507;SDS011;10915;54.352;9.074;2023-07-02T15:07:56;11.97;;;4.00;;
21507;SDS011;10915;54.352;9.074;2023-07-02T15:11:18;12.70;;;3.63;;
21507;SDS011;10915;54.352;9.074;2023-07-02T15:13:56;15.60;;;3.57;;
21507;SDS011;10915;54.352;9.074;2023-07-02T15:19:50;10.20;;;3.50;;
21507;SDS011;10915;54.352;9.074;2023-07-02T15:28:49;13.40;;;4.47;;
21507;SDS011;10915;54.352;9.074;2023-07-02T15:31:24;14.90;;;4.00;;
21507;SDS011;10915;54.352;9.074;2023-07-02T15:33:56;13.93;;;3.80;;
21507;SDS011;10915;54.352;9.074;2023-07-02T15:36:41;13.53;;;3.60;;
21507;SDS011;10915;54.352;9.074;2023-07-02T15:43:00;11.17;;;3.53;;
21507;SDS011;10915;54.352;9.074;2023-07-02T15:45:41;11.73;;;3.67;;
21507;SDS011;10915;54.352;9.074;2023-07-02T15:51:48;11.17;;;3.93;;